Saltar para o conteúdo principal

Viana Castelo, Chafé

ID 1200551 · 41.6489, -8.8046 mapa

Última leitura · 2026-05-09 18:00 (Europe/Lisbon)

Temperatura
16.4 °C
Humidade
88 %
Pressão
1,004.5 hPa
Precipitação
0.0 mm
Radiação
988 W/m²
Velocidade do vento
8.6 km/h
Direcção do vento
S · Sul

Histórico de 24 horas

Hora (Europe/Lisbon) Temperatura Humidade Pressão Chuva Vento Direcção
2026-05-09 18:00 16.4 °C 88 % 1,004.5 0.0 mm 8.6 km/h S
2026-05-09 17:00 16.9 °C 85 % 1,004.3 0.0 mm 10.1 km/h S
2026-05-09 16:00 15.4 °C 99 % 1,004.2 0.0 mm 7.2 km/h S
2026-05-09 15:00 15.8 °C 95 % 1,003.7 0.0 mm 2.2 km/h SE
2026-05-09 14:00 16.6 °C 93 % 1,003.8 0.0 mm 4.3 km/h SE
2026-05-09 13:00 14.4 °C 100 % 1,004.3 0.0 mm 10.8 km/h E
2026-05-09 12:00 12.7 °C 100 % 1,004.7 0.0 mm 4.3 km/h S
2026-05-09 11:00 13.1 °C 100 % 1,004.4 0.0 mm 9.4 km/h SW
2026-05-09 10:00 14.0 °C 99 % 1,004.1 0.3 mm 3.6 km/h SE
2026-05-09 09:00 14.8 °C 87 % 1,004.1 0.7 mm 7.6 km/h E
2026-05-09 08:00 13.4 °C 92 % 1,004.0 0.0 mm 9.0 km/h E
2026-05-09 07:00 12.0 °C 96 % 1,004.0 0.0 mm 5.4 km/h E
2026-05-09 06:00 12.8 °C 90 % 1,004.2 0.0 mm 8.3 km/h E
2026-05-09 05:00 13.9 °C 86 % 1,004.4 0.0 mm 5.8 km/h SE
2026-05-09 04:00 12.9 °C 99 % 1,004.7 0.0 mm 7.6 km/h SE
2026-05-09 03:00 13.0 °C 100 % 1,004.9 0.5 mm 2.9 km/h SE
2026-05-09 02:00 13.8 °C 93 % 1,005.9 0.8 mm 6.1 km/h E
2026-05-09 01:00 13.8 °C 84 % 1,005.4 0.0 mm 5.8 km/h SE
2026-05-09 00:00 13.6 °C 85 % 1,005.6 0.0 mm 10.1 km/h E
2026-05-08 23:00 13.3 °C 84 % 1,006.4 0.0 mm 10.8 km/h E
2026-05-08 22:00 13.4 °C 82 % 1,006.8 0.0 mm 7.9 km/h E
2026-05-08 21:00 13.3 °C 84 % 1,006.8 0.0 mm 8.6 km/h E
2026-05-08 20:00 15.8 °C 72 % 1,007.3 0.0 mm 1.8 km/h NE
2026-05-08 19:00 17.6 °C 60 % 1,007.6 0.0 mm 4.7 km/h SW